Flight Track Log - Related Links

Times and Time Zones

All times are in EDT time to prevent confusion due to time zone crossing. See the SWA2624 flight status page for this flight to view local times or setup timezone preferences in your user account.

Time Position Orientation Groundspeed Altitude Reporting Facility
EDT Latitude Longitude Course Direction KTS MPH feet Rate Location/Type
Mon 06:48:58 PM 39.1167 -76.6833 288° West 216 249 3,000  Level Potomac TRACON
Mon 06:49:52 PM 39.1333 -76.7500 288° West 244 281 5,100 2,789 Climbing Potomac TRACON
Mon 06:50:52 PM 39.1833 -76.8167 314° West 280 322 8,300 3,471 Climbing Potomac TRACON
Mon 06:51:53 PM 39.2000 -76.9167 282° West 288 331 12,100 3,471 Climbing Potomac TRACON
Mon 06:52:53 PM 39.2167 -77.0167 282° West 301 346 15,300 2,703 Climbing Potomac TRACON
Mon 06:54:55 PM 39.1589 -77.2192 250° West 318 366 20,300 2,341 Climbing Washington Center
Mon 06:55:55 PM 39.1047 -77.3489 242° Southwest 346 398 22,400 2,200 Climbing Washington Center
Mon 06:56:55 PM 39.0675 -77.4792 250° West 378 435 24,700 2,250 Climbing Washington Center
Mon 06:57:55 PM 39.0322 -77.5983 249° West 401 461 26,900 2,050 Climbing Washington Center
Mon 06:58:55 PM 38.9900 -77.7442 250° West 408 470 28,800 2,150 Climbing Washington Center
Mon 06:59:55 PM 38.9567 -77.8606 250° West 400 460 31,200 2,200 Climbing Washington Center
Mon 07:00:55 PM 38.9183 -78.0036 251° West 394 453 33,200 1,950 Climbing Washington Center
Mon 07:01:55 PM 38.9114 -78.1394 266° West 387 445 35,100 1,550 Climbing Washington Center
Mon 07:02:55 PM 38.9064 -78.2778 267° West 387 445 36,300 1,200 Climbing Washington Center
Mon 07:03:55 PM 38.9011 -78.4111 267° West 387 445 37,500 850 Climbing Washington Center
Mon 07:04:55 PM 38.8958 -78.5522 267° West 387 445 38,000 252 Climbing Washington Center
Mon 07:05:54 PM 38.8903 -78.6881 267° West 382 440 38,000  Level Washington Center
Mon 07:06:55 PM 38.8847 -78.8239 267° West 382 440 38,000  Level Washington Center
Mon 07:07:55 PM 38.8786 -78.9622 267° West 382 440 38,000  Level Washington Center
Mon 07:08:55 PM 38.8728 -79.0981 267° West 382 440 38,000  Level Washington Center
Mon 07:09:54 PM 38.8689 -79.2311 268° West 382 440 38,000  Level Washington Center
Mon 07:10:55 PM 38.8603 -79.3667 265° West 382 440 38,000  Level Washington Center
Mon 07:11:55 PM 38.8561 -79.5025 268° West 382 440 38,000  Level Washington Center
Mon 07:12:55 PM 38.8494 -79.6433 267° West 397 457 38,000  Level Washington Center
Mon 07:13:55 PM 38.8406 -79.7789 265° West 397 457 38,000  Level Washington Center
Mon 07:14:55 PM 38.8317 -79.9142 265° West 397 457 38,000  Level Washington Center
Mon 07:15:55 PM 38.8264 -80.0553 267° West 397 457 38,000  Level Washington Center
Mon 07:17:23 PM 38.8153 -80.2447 266° West 390 449 38,000  Level Indianapolis Center
Mon 07:18:25 PM 38.8125 -80.3842 269° West 391 450 38,000  Level Indianapolis Center
Mon 07:19:27 PM 38.8086 -80.5228 268° West 389 448 38,000  Level Indianapolis Center
Mon 07:20:29 PM 38.8044 -80.6639 268° West 395 455 38,000  Level Indianapolis Center
Mon 07:21:31 PM 38.7992 -80.8039 267° West 393 452 38,000  Level Indianapolis Center
Mon 07:22:32 PM 38.7942 -80.9750 268° West 399 459 38,000  Level Indianapolis Center
Mon 07:23:34 PM 38.7894 -81.1172 268° West 401 461 38,000  Level Indianapolis Center
Mon 07:24:36 PM 38.7850 -81.2594 268° West 402 463 38,000  Level Indianapolis Center
Mon 07:25:38 PM 38.7800 -81.4033 267° West 407 468 38,000  Level Indianapolis Center
Mon 07:26:40 PM 38.7750 -81.5547 268° West 412 474 38,000  Level Indianapolis Center
Mon 07:27:41 PM 38.7675 -81.7200 267° West 419 482 38,000  Level Indianapolis Center
Mon 07:28:43 PM 38.7617 -81.8678 267° West 419 482 38,000  Level Indianapolis Center
Mon 07:29:45 PM 38.7550 -82.0147 267° West 416 479 38,000  Level Indianapolis Center
Mon 07:30:47 PM 38.7500 -82.1636 268° West 417 480 38,000  Level Indianapolis Center
Mon 07:31:48 PM 38.7436 -82.3114 267° West 415 478 38,000  Level Indianapolis Center
Mon 07:32:50 PM 38.7378 -82.4594 267° West 416 479 38,000  Level Indianapolis Center
Mon 07:33:52 PM 38.7325 -82.6047 267° West 410 472 38,000  Level Indianapolis Center
Mon 07:34:53 PM 38.7242 -82.7819 267° West 414 476 38,000  Level Indianapolis Center
Mon 07:35:55 PM 38.7186 -82.9289 267° West 414 476 38,000  Level Indianapolis Center
Mon 07:36:57 PM 38.7119 -83.0758 267° West 413 475 38,000  Level Indianapolis Center
Mon 07:37:59 PM 38.7039 -83.2331 266° West 421 484 38,000  Level Indianapolis Center
Mon 07:39:00 PM 38.6969 -83.3839 267° West 421 484 38,000  Level Indianapolis Center
Mon 07:40:02 PM 38.6900 -83.5339 267° West 420 483 38,000  Level Indianapolis Center
Mon 07:41:03 PM 38.6819 -83.6853 266° West 422 486 38,000  Level Indianapolis Center
Mon 07:42:05 PM 38.6742 -83.8358 266° West 419 482 38,000  Level Indianapolis Center
Mon 07:43:07 PM 38.6717 -83.9858 269° West 418 481 38,000  Level Indianapolis Center
Mon 07:44:08 PM 38.6811 -84.1367 275° West 421 484 38,000  Level Indianapolis Center
Mon 07:45:10 PM 38.6897 -84.2836 274° West 412 474 38,000  Level Indianapolis Center
Mon 07:46:11 PM 38.6981 -84.4311 274° West 411 473 38,000  Level Indianapolis Center
Mon 07:47:13 PM 38.7047 -84.5831 273° West 409 471 38,000  Level Indianapolis Center
Mon 07:48:14 PM 38.7125 -84.7289 274° West 409 471 38,000  Level Indianapolis Center
Mon 07:49:16 PM 38.7197 -84.8878 273° West 411 473 38,000  Level Indianapolis Center
Mon 07:50:17 PM 38.7281 -85.0347 274° West 412 474 38,000  Level Indianapolis Center
Mon 07:51:19 PM 38.7325 -85.1803 272° West 410 472 38,000  Level Indianapolis Center
Mon 07:52:20 PM 38.7406 -85.3250 274° West 409 471 38,000  Level Indianapolis Center
Mon 07:53:22 PM 38.7464 -85.4697 273° West 407 468 38,000  Level Indianapolis Center
Mon 07:54:23 PM 38.7533 -85.6164 274° West 412 474 38,000  Level Indianapolis Center
Mon 07:55:24 PM 38.7608 -85.7919 273° West 410 472 38,000  Level Indianapolis Center
Mon 07:56:26 PM 38.7667 -85.9372 273° West 409 471 38,000 244 Level Indianapolis Center
Mon 07:57:27 PM 38.7733 -86.0847 273° West 412 474 38,500 634 Climbing Indianapolis Center
Mon 07:58:29 PM 38.7781 -86.2350 272° West 420 483 39,300 732 Climbing Indianapolis Center
Mon 07:59:30 PM 38.7847 -86.3858 273° West 422 486 40,000 341 Climbing Indianapolis Center
Mon 08:00:32 PM 38.7894 -86.5350 272° West 420 483 40,000  Level Indianapolis Center
Mon 08:01:33 PM 38.7944 -86.6814 273° West 415 478 40,000  Level Indianapolis Center
Mon 08:02:34 PM 38.7989 -86.8269 272° West 411 473 40,000  Level Indianapolis Center
Mon 08:03:36 PM 38.8039 -86.9736 273° West 412 474 40,000  Level Indianapolis Center
Mon 08:04:37 PM 38.8094 -87.1483 272° West 411 473 40,000  Level Indianapolis Center
Mon 08:05:39 PM 38.8136 -87.2919 272° West 407 468 40,000  Level Indianapolis Center
Mon 08:06:40 PM 38.8178 -87.4358 272° West 405 466 40,000  Level Indianapolis Center
Mon 08:07:41 PM 38.8219 -87.5800 272° West 404 465 40,000  Level Indianapolis Center
Mon 08:08:43 PM 38.8250 -87.7225 272° West 404 465 40,000  Level Indianapolis Center
Mon 08:09:44 PM 38.8286 -87.8661 272° West 402 463 40,000  Level Indianapolis Center
Mon 08:10:46 PM 38.8314 -88.0103 271° West 404 465 40,000  Level Indianapolis Center
Mon 08:11:42 PM 38.8339 -88.1542 271° West 401 461 40,000  Level Kansas City Center
Mon 08:12:46 PM 38.8358 -88.2975 271° West 401 461 40,000  Level Kansas City Center
Mon 08:13:47 PM 38.8389 -88.4400 272° West 400 460 40,000  Level Kansas City Center
Mon 08:14:48 PM 38.8414 -88.5817 271° West 398 458 40,000  Level Kansas City Center
Mon 08:15:48 PM 38.8444 -88.7375 271° West 400 460 40,000  Level Kansas City Center
Mon 08:16:50 PM 38.8453 -88.8797 270° West 401 461 40,000  Level Kansas City Center
Mon 08:17:52 PM 38.8494 -89.0372 272° West 405 466 40,000  Level Kansas City Center
Mon 08:18:52 PM 38.8522 -89.1806 271° West 403 464 40,000  Level Kansas City Center
Mon 08:19:57 PM 38.8533 -89.3339 271° West 402 463 40,000  Level Kansas City Center
Mon 08:20:58 PM 38.8556 -89.4764 271° West 401 461 40,000  Level Kansas City Center
Mon 08:21:57 PM 38.8561 -89.6275 270° West 397 457 40,000  Level Kansas City Center
Mon 08:23:01 PM 38.8578 -89.7625 271° West 397 457 40,000  Level Kansas City Center
Mon 08:24:01 PM 38.8494 -89.9011 266° West 397 457 40,000  Level Kansas City Center
Mon 08:25:02 PM 38.8344 -90.0414 262° West 392 451 40,000  Level Kansas City Center
Mon 08:26:04 PM 38.8192 -90.1781 262° West 388 447 40,000  Level Kansas City Center
Mon 08:27:07 PM 38.8039 -90.3142 262° West 386 444 40,000  Level Kansas City Center
Mon 08:28:07 PM 38.7889 -90.4492 262° West 384 442 40,000  Level Kansas City Center
Mon 08:29:09 PM 38.7683 -90.5856 259° West 391 450 40,000  Level Kansas City Center
Mon 08:30:09 PM 38.7519 -90.7322 262° West 387 445 40,000  Level Kansas City Center
Mon 08:31:11 PM 38.7358 -90.8686 261° West 389 448 40,000  Level Kansas City Center
Mon 08:32:14 PM 38.7203 -91.0036 262° West 386 444 40,000  Level Kansas City Center
Mon 08:33:15 PM 38.7044 -91.1386 261° West 385 443 40,000  Level Kansas City Center
Mon 08:34:16 PM 38.6844 -91.2989 261° West 382 440 40,000  Level Kansas City Center
Mon 08:35:17 PM 38.6689 -91.4289 261° West 386 444 40,000  Level Kansas City Center
Mon 08:36:21 PM 38.6522 -91.5650 261° West 388 447 40,000  Level Kansas City Center
Mon 08:37:20 PM 38.6333 -91.7006 260° West 387 445 40,000  Level Kansas City Center
Mon 08:38:21 PM 38.6172 -91.8353 261° West 385 443 40,000  Level Kansas City Center
Mon 08:39:22 PM 38.5983 -91.9678 260° West 381 438 40,000  Level Kansas City Center
Mon 08:40:26 PM 38.5772 -92.1258 260° West 377 434 40,000  Level Kansas City Center
Mon 08:41:26 PM 38.5600 -92.2569 261° West 374 430 40,000  Level Kansas City Center
Mon 08:42:27 PM 38.5419 -92.3850 260° West 370 426 40,000  Level Kansas City Center
Mon 08:43:28 PM 38.5250 -92.5119 260° West 365 420 40,000  Level Kansas City Center
Mon 08:44:29 PM 38.5075 -92.6403 260° West 366 421 40,000  Level Kansas City Center
Mon 08:45:31 PM 38.4900 -92.7658 260° West 363 418 40,000  Level Kansas City Center
Mon 08:46:32 PM 38.4717 -92.8944 260° West 367 422 40,000  Level Kansas City Center
Mon 08:47:33 PM 38.4536 -93.0219 260° West 366 421 40,000  Level Kansas City Center
Mon 08:48:37 PM 38.4319 -93.1769 260° West 370 426 40,000  Level Kansas City Center
Mon 08:49:38 PM 38.4139 -93.3056 260° West 369 425 40,000  Level Kansas City Center
Mon 08:50:39 PM 38.3958 -93.4358 260° West 372 428 40,000  Level Kansas City Center
Mon 08:51:40 PM 38.3764 -93.5650 259° West 372 428 40,000  Level Kansas City Center
Mon 08:52:40 PM 38.3581 -93.6928 260° West 368 423 40,000  Level Kansas City Center
Mon 08:53:44 PM 38.3400 -93.8203 260° West 368 423 40,000  Level Kansas City Center
Mon 08:54:45 PM 38.3214 -93.9478 259° West 365 420 40,000  Level Kansas City Center
Mon 08:55:46 PM 38.3014 -94.0742 259° West 364 419 40,000  Level Kansas City Center
Mon 08:56:49 PM 38.2808 -94.2108 259° West 365 420 40,000  Level Kansas City Center
Mon 08:57:50 PM 38.2628 -94.3333 259° West 366 421 40,000  Level Kansas City Center
Mon 08:58:50 PM 38.2394 -94.4767 258° West 367 422 40,000  Level Kansas City Center
Mon 08:59:51 PM 38.2206 -94.5994 259° West 369 425 40,000  Level Kansas City Center
Mon 09:00:52 PM 38.1997 -94.7417 259° West 368 423 40,000  Level Kansas City Center
Mon 09:01:53 PM 38.1794 -94.8644 258° West 370 426 40,000  Level Kansas City Center
Mon 09:02:57 PM 38.1600 -94.9875 259° West 370 426 40,000  Level Kansas City Center
Mon 09:03:58 PM 38.1386 -95.1292 259° West 366 421 40,000  Level Kansas City Center
Mon 09:04:59 PM 38.1194 -95.2483 258° West 362 417 40,000  Level Kansas City Center
Mon 09:06:00 PM 38.0989 -95.3692 258° West 364 419 40,000  Level Kansas City Center
Mon 09:07:02 PM 38.0758 -95.5100 258° West 364 419 40,000  Level Kansas City Center
Mon 09:08:02 PM 38.0569 -95.6306 259° West 364 419 40,000  Level Kansas City Center
Mon 09:09:02 PM 38.0342 -95.7700 258° West 361 415 40,000  Level Kansas City Center
Mon 09:10:06 PM 38.0144 -95.8867 258° West 355 409 40,000  Level Kansas City Center
Mon 09:11:05 PM 37.9953 -96.0044 258° West 354 407 40,000  Level Kansas City Center
Mon 09:12:08 PM 37.9728 -96.1339 258° West 358 412 40,000  Level Kansas City Center
Mon 09:13:09 PM 37.9514 -96.2575 258° West 360 414 40,000  Level Kansas City Center
Mon 09:14:09 PM 37.9294 -96.3822 257° West 363 418 40,000  Level Kansas City Center
Mon 09:15:13 PM 37.9089 -96.5069 258° West 363 418 40,000  Level Kansas City Center
Mon 09:16:13 PM 37.8867 -96.6319 257° West 364 419 40,000  Level Kansas City Center
Mon 09:17:16 PM 37.8617 -96.7819 258° West 364 419 40,000  Level Kansas City Center
Mon 09:18:16 PM 37.8400 -96.9044 257° West 359 413 40,000  Level Kansas City Center
Mon 09:19:17 PM 37.8169 -97.0294 257° West 365 420 40,000  Level Kansas City Center
Mon 09:20:18 PM 37.7953 -97.1553 258° West 366 421 40,000  Level Kansas City Center
Mon 09:21:19 PM 37.7731 -97.2803 257° West 366 421 40,000  Level Kansas City Center
Mon 09:22:22 PM 37.7500 -97.4058 257° West 365 420 40,000  Level Kansas City Center
Mon 09:23:24 PM 37.7267 -97.5275 256° West 361 415 40,000  Level Kansas City Center
Mon 09:24:24 PM 37.7044 -97.6511 257° West 361 415 40,000  Level Kansas City Center
Mon 09:25:25 PM 37.6761 -97.8022 257° West 366 421 40,000  Level Kansas City Center
Mon 09:26:26 PM 37.6531 -97.9306 257° West 372 428 40,000  Level Kansas City Center
Mon 09:27:27 PM 37.6292 -98.0608 257° West 378 435 40,000  Level Kansas City Center
Mon 09:28:28 PM 37.6083 -98.1725 257° West 382 440 40,000  Level Kansas City Center
Mon 09:29:30 PM 37.5786 -98.3300 257° West 383 441 40,000  Level Kansas City Center
Mon 09:30:34 PM 37.5536 -98.4606 256° West 384 442 40,000  Level Kansas City Center
Mon 09:31:34 PM 37.5281 -98.5922 256° West 385 443 40,000  Level Kansas City Center
Mon 09:32:35 PM 37.5031 -98.7242 257° West 387 445 40,000  Level Kansas City Center
Mon 09:33:37 PM 37.4781 -98.8544 256° West 386 444 40,000  Level Kansas City Center
Mon 09:34:38 PM 37.4514 -98.9856 256° West 385 443 40,000  Level Kansas City Center
Mon 09:35:40 PM 37.4256 -99.1142 256° West 383 441 40,000  Level Kansas City Center
Mon 09:36:42 PM 37.4003 -99.2453 256° West 384 442 40,000  Level Kansas City Center
Mon 09:37:42 PM 37.3736 -99.3778 256° West 390 449 40,000  Level Kansas City Center
Mon 09:38:43 PM 37.3464 -99.5175 256° West 386 444 40,000  Level Kansas City Center
Mon 09:39:43 PM 37.3167 -99.6619 256° West 383 441 40,000  Level Kansas City Center
Mon 09:40:44 PM 37.2917 -99.7864 256° West 383 441 40,000  Level Kansas City Center
Mon 09:41:45 PM 37.2614 -99.9322 255° West 385 443 40,000  Level Kansas City Center
Mon 09:42:49 PM 37.2358 -100.0561 256° West 384 442 40,000  Level Kansas City Center
Mon 09:43:50 PM 37.2103 -100.1803 256° West 383 441 40,000  Level Kansas City Center
Mon 09:44:52 PM 37.1808 -100.3258 256° West 384 442 40,000  Level Kansas City Center
Mon 09:45:50 PM 37.1550 -100.4497 255° West 384 442 40,000  Level Kansas City Center
Mon 09:46:54 PM 37.1289 -100.5739 255° West 384 442 40,000  Level Kansas City Center
Mon 09:47:55 PM 37.0983 -100.7172 255° West 382 440 40,000  Level Kansas City Center
Mon 09:48:57 PM 37.0728 -100.8394 255° West 379 436 40,000  Level Kansas City Center
Mon 09:49:57 PM 37.0456 -100.9617 254° West 379 436 40,000  Level Kansas City Center
Mon 09:50:57 PM 37.0081 -101.1031 252° West 382 440 40,000  Level Kansas City Center
Mon 09:52:00 PM 36.9744 -101.2256 251° West 386 444 40,000  Level Kansas City Center
Mon 09:53:01 PM 36.9353 -101.3672 251° West 386 444 40,000  Level Kansas City Center
Mon 09:53:47 PM 36.9072 -101.4689 251° West 387 445 40,000  Level Albuquerque Center
Mon 09:54:48 PM 36.8739 -101.5900 251° West 386 444 40,000  Level Albuquerque Center
Mon 09:55:50 PM 36.8397 -101.7097 250° West 384 442 40,000  Level Albuquerque Center
Mon 09:56:51 PM 36.7997 -101.8517 251° West 386 444 40,000  Level Albuquerque Center
Mon 09:57:52 PM 36.7653 -101.9714 250° West 385 443 40,000  Level Albuquerque Center
Mon 09:58:53 PM 36.7314 -102.0925 251° West 386 444 40,000  Level Albuquerque Center
Mon 09:59:54 PM 36.6906 -102.2364 251° West 384 442 40,000  Level Albuquerque Center
Mon 10:01:57 PM 36.6192 -102.4836 250° West 381 438 40,000  Level Albuquerque Center
Mon 10:02:58 PM 36.5831 -102.6067 250° West 382 440 40,000  Level Albuquerque Center
Mon 10:03:59 PM 36.5478 -102.7289 250° West 379 436 40,000  Level Albuquerque Center
Mon 10:05:01 PM 36.5117 -102.8506 250° West 377 434 40,000  Level Albuquerque Center
Mon 10:06:02 PM 36.4747 -102.9858 251° West 383 441 40,000  Level Albuquerque Center
Mon 10:07:03 PM 36.4381 -103.1097 250° West 381 438 40,000  Level Albuquerque Center
Mon 10:08:04 PM 36.4017 -103.2319 250° West 377 434 40,000  Level Albuquerque Center
Mon 10:09:06 PM 36.3653 -103.3569 250° West 381 438 40,000  Level Albuquerque Center
Mon 10:10:07 PM 36.3269 -103.4806 249° West 381 438 40,000  Level Albuquerque Center
Mon 10:11:08 PM 36.2903 -103.6044 250° West 380 437 40,000  Level Albuquerque Center
Mon 10:12:09 PM 36.2528 -103.7297 250° West 382 440 40,000  Level Albuquerque Center
Mon 10:13:11 PM 36.2150 -103.8522 249° West 381 438 40,000  Level Albuquerque Center
Mon 10:14:12 PM 36.1725 -103.9931 250° West 374 430 40,000  Level Albuquerque Center
Mon 10:15:13 PM 36.1361 -104.1122 249° West 370 426 40,000  Level Albuquerque Center
Mon 10:16:14 PM 36.0989 -104.2272 248° West 364 419 40,000  Level Albuquerque Center
Mon 10:17:15 PM 36.0619 -104.3458 249° West 367 422 40,000  Level Albuquerque Center
Mon 10:18:17 PM 36.0261 -104.4644 250° West 367 422 40,000  Level Albuquerque Center
Mon 10:19:18 PM 35.9897 -104.5817 249° West 366 421 40,000  Level Albuquerque Center
Mon 10:20:19 PM 35.9533 -104.7000 249° West 367 422 40,000  Level Albuquerque Center
Mon 10:21:20 PM 35.8906 -104.8072 234° Southwest 388 447 40,000 -295 Level Albuquerque Center
Mon 10:22:21 PM 35.8131 -104.9083 227° Southwest 403 464 39,400 -787 Descending Albuquerque Center
Mon 10:23:22 PM 35.7386 -105.0058 227° Southwest 394 453 38,400 -976 Descending Albuquerque Center
Mon 10:24:24 PM 35.6650 -105.1019 227° Southwest 388 447 37,400 -1,902 Descending Albuquerque Center
Mon 10:25:25 PM 35.5894 -105.2008 227° Southwest 392 451 34,500 -2,607 Descending Albuquerque Center
Mon 10:26:26 PM 35.5139 -105.2981 226° Southwest 391 450 32,100 -2,508 Descending Albuquerque Center
Mon 10:27:27 PM 35.4272 -105.4097 226° Southwest 387 445 29,400 -2,508 Descending Albuquerque Center
Mon 10:28:28 PM 35.3503 -105.5092 227° Southwest 394 453 27,000 -2,244 Descending Albuquerque Center
Mon 10:29:30 PM 35.2744 -105.6039 226° Southwest 390 449 24,800 -2,146 Descending Albuquerque Center
Mon 10:30:31 PM 35.2036 -105.6953 227° Southwest 376 433 22,600 -2,066 Descending Albuquerque Center
Mon 10:31:32 PM 35.1364 -105.7822 227° Southwest 359 413 20,600 -1,967 Descending Albuquerque Center
Mon 10:32:33 PM 35.0722 -105.8631 226° Southwest 336 387 18,600 -1,869 Descending Albuquerque Center
Mon 10:33:34 PM 35.0175 -105.9339 227° Southwest 331 381 16,800 -1,561 Descending Albuquerque Center
Mon 10:34:36 PM 34.9550 -106.0317 232° Southwest 289 333 15,400 -1,463 Descending Albuquerque Center
Mon 10:35:37 PM 34.9575 -106.1239 272° West 279 321 13,800 -1,512 Descending Albuquerque Center
Mon 10:36:43 PM 34.9583 -106.2306 271° West 269 310 12,200 -1,218 Descending Albuquerque Center
Mon 10:37:50 PM 34.9581 -106.3242 270° West 257 296 11,100 -966 Descending Albuquerque Center
Mon 10:38:41 PM 34.9458 -106.3842 256° West 253 291 10,300 -804 Descending Albuquerque Center
Mon 10:39:42 PM 34.9217 -106.4567 248° West 241 277 9,600 -885 Descending Albuquerque Center
Mon 10:40:43 PM 34.9381 -106.5233 287° West 231 266 8,500 -1,171 Descending Albuquerque Center
Mon 10:41:45 PM 34.9961 -106.5192 North 225 259 7,200 -1,082 Descending Albuquerque Center
Mon 10:42:45 PM 35.0378 -106.5197 359° North 191 220 6,300 -787 Descending Albuquerque Center
Mon 10:43:47 PM 35.0444 -106.5614 281° West 148 170 5,600 -488 Descending Albuquerque Center
Mon 10:44:48 PM 35.0453 -106.6147 271° West 142 163 5,300 -295 Descending Albuquerque Center
Mon 10:46:00 PM 35.0402 -106.6092 North  Level Estimated

Login

Don't have an account? Register now (free) for customized features, flight alerts, and more!